createdAt,value
2022-09-11T00:00:40.389Z,1010.03
2022-09-11T00:01:40.611Z,1010.03
2022-09-11T00:02:40.466Z,1010.08
2022-09-11T00:03:40.507Z,1010.06
2022-09-11T00:04:40.489Z,1010.11
2022-09-11T00:05:40.514Z,1010.11
2022-09-11T00:06:40.545Z,1010.09
2022-09-11T00:07:40.569Z,1010.10
2022-09-11T00:08:40.596Z,1010.08
2022-09-11T00:09:40.621Z,1010.11
2022-09-11T00:10:40.647Z,1010.09
2022-09-11T00:11:40.824Z,1010.11
2022-09-11T00:12:40.696Z,1010.11
2022-09-11T00:13:40.836Z,1010.14
2022-09-11T00:14:40.748Z,1010.12
2022-09-11T00:15:40.777Z,1010.12
2022-09-11T00:16:40.799Z,1010.12
2022-09-11T00:17:40.825Z,1010.12
2022-09-11T00:18:40.852Z,1010.12
2022-09-11T00:19:40.875Z,1010.15
2022-09-11T00:20:40.902Z,1010.19
2022-09-11T00:21:40.928Z,1010.18
2022-09-11T00:22:40.954Z,1010.17
2022-09-11T00:23:41.159Z,1010.18
2022-09-11T00:24:41.012Z,1010.17
2022-09-11T00:25:41.033Z,1010.15
2022-09-11T00:26:41.066Z,1010.15
2022-09-11T00:27:41.081Z,1010.15
2022-09-11T00:28:41.105Z,1010.11
2022-09-11T00:29:41.131Z,1010.12
2022-09-11T00:30:41.156Z,1010.13
2022-09-11T00:31:41.239Z,1010.10
2022-09-11T00:32:41.210Z,1010.11
2022-09-11T00:33:41.330Z,1010.13
2022-09-11T00:34:41.262Z,1010.13
2022-09-11T00:35:41.285Z,1010.09
2022-09-11T00:36:41.360Z,1010.08
2022-09-11T00:37:41.337Z,1010.11
2022-09-11T00:38:41.362Z,1010.12
2022-09-11T00:39:41.424Z,1010.12
2022-09-11T00:40:41.413Z,1010.12
2022-09-11T00:41:41.437Z,1010.10
2022-09-11T00:42:41.461Z,1010.10
2022-09-11T00:43:41.625Z,1010.13
2022-09-11T00:44:41.514Z,1010.11
2022-09-11T00:45:41.552Z,1010.12
2022-09-11T00:46:41.566Z,1010.09
2022-09-11T00:47:41.589Z,1010.08
2022-09-11T00:48:41.618Z,1010.09
2022-09-11T00:49:41.640Z,1010.10
2022-09-11T00:50:41.666Z,1010.13
2022-09-11T00:51:41.696Z,1010.16
2022-09-11T00:52:41.718Z,1010.17
2022-09-11T00:53:41.803Z,1010.20
2022-09-11T00:54:41.778Z,1010.20
2022-09-11T00:55:41.795Z,1010.22
2022-09-11T00:56:41.834Z,1010.23
2022-09-11T00:57:41.846Z,1010.24
2022-09-11T00:58:41.874Z,1010.27
2022-09-11T00:59:41.894Z,1010.26
2022-09-11T01:00:41.965Z,1010.23
2022-09-11T01:01:41.999Z,1010.29
2022-09-11T01:02:41.972Z,1010.28
2022-09-11T01:03:42.142Z,1010.24
2022-09-11T01:04:42.022Z,1010.24
2022-09-11T01:05:42.047Z,1010.28
2022-09-11T01:06:42.073Z,1010.27
2022-09-11T01:07:42.099Z,1010.27
2022-09-11T01:08:42.121Z,1010.28
2022-09-11T01:09:42.149Z,1010.27
2022-09-11T01:10:42.169Z,1010.31
2022-09-11T01:11:42.199Z,1010.30
2022-09-11T01:12:42.223Z,1010.25
2022-09-11T01:13:42.306Z,1010.27
2022-09-11T01:14:42.275Z,1010.25
2022-09-11T01:15:42.293Z,1010.26
2022-09-11T01:16:42.327Z,1010.29
2022-09-11T01:17:42.348Z,1010.33
2022-09-11T01:18:42.378Z,1010.34
2022-09-11T01:19:42.400Z,1010.35
2022-09-11T01:20:42.424Z,1010.38
2022-09-11T01:21:42.449Z,1010.33
2022-09-11T01:22:42.474Z,1010.34
2022-09-11T01:23:42.593Z,1010.35
2022-09-11T01:24:42.526Z,1010.38
2022-09-11T01:25:42.551Z,1010.37
2022-09-11T01:26:42.576Z,1010.39
2022-09-11T01:27:42.603Z,1010.41
2022-09-11T01:28:42.632Z,1010.44
2022-09-11T01:29:42.653Z,1010.44
2022-09-11T01:30:42.679Z,1010.47
2022-09-11T01:31:42.727Z,1010.50
2022-09-11T01:32:42.728Z,1010.48
2022-09-11T01:33:42.826Z,1010.52
2022-09-11T01:34:42.777Z,1010.56
2022-09-11T01:35:42.799Z,1010.55
2022-09-11T01:36:42.829Z,1010.56
2022-09-11T01:37:42.851Z,1010.56
2022-09-11T01:38:42.876Z,1010.55
2022-09-11T01:39:42.945Z,1010.62
2022-09-11T01:40:42.927Z,1010.61
2022-09-11T01:41:42.951Z,1010.60
2022-09-11T01:42:42.981Z,1010.62
2022-09-11T01:43:43.180Z,1010.62
2022-09-11T01:44:43.025Z,1010.61
2022-09-11T01:45:43.099Z,1010.64
2022-09-11T01:46:43.076Z,1010.67
2022-09-11T01:47:43.103Z,1010.65
2022-09-11T01:48:43.133Z,1010.63
2022-09-11T01:49:43.153Z,1010.67
2022-09-11T01:50:43.181Z,1010.61
2022-09-11T01:51:43.201Z,1010.62
2022-09-11T01:52:43.222Z,1010.65
2022-09-11T01:53:46.922Z,1010.63
2022-09-11T01:54:43.276Z,1010.64
2022-09-11T01:55:43.302Z,1010.63
2022-09-11T01:56:43.326Z,1010.69
2022-09-11T01:57:43.350Z,1010.66
2022-09-11T01:58:43.376Z,1010.69
2022-09-11T01:59:43.401Z,1010.71
2022-09-11T02:00:43.470Z,1010.71
2022-09-11T02:01:43.503Z,1010.75
2022-09-11T02:02:43.477Z,1010.76
2022-09-11T02:03:43.503Z,1010.79
2022-09-11T02:04:43.525Z,1010.82
2022-09-11T02:05:43.550Z,1010.81
2022-09-11T02:06:43.579Z,1010.82
2022-09-11T02:07:43.605Z,1010.82
2022-09-11T02:08:43.670Z,1010.78
2022-09-11T02:09:43.650Z,1010.78
2022-09-11T02:10:43.674Z,1010.80
2022-09-11T02:11:43.698Z,1010.81
2022-09-11T02:12:43.724Z,1010.80
2022-09-11T02:13:43.756Z,1010.81
2022-09-11T02:14:43.771Z,1010.83
2022-09-11T02:15:43.806Z,1010.82
2022-09-11T02:16:43.831Z,1010.84
2022-09-11T02:17:43.850Z,1010.85
2022-09-11T02:18:43.874Z,1010.82
2022-09-11T02:19:43.911Z,1010.83
2022-09-11T02:20:43.927Z,1010.82
2022-09-11T02:21:43.950Z,1010.84
2022-09-11T02:22:43.974Z,1010.84
2022-09-11T02:23:44.002Z,1010.88
2022-09-11T02:24:44.023Z,1010.87
2022-09-11T02:25:44.050Z,1010.88
2022-09-11T02:26:44.076Z,1010.91
2022-09-11T02:27:44.101Z,1010.91
2022-09-11T02:28:44.127Z,1010.96
2022-09-11T02:29:44.153Z,1010.96
2022-09-11T02:30:44.174Z,1010.99
2022-09-11T02:31:44.260Z,1010.93
2022-09-11T02:32:44.230Z,1010.98
2022-09-11T02:33:44.249Z,1010.98
2022-09-11T02:34:44.276Z,1011.00
2022-09-11T02:35:44.298Z,1011.01
2022-09-11T02:36:44.326Z,1010.99
2022-09-11T02:37:44.349Z,1011.01
2022-09-11T02:38:44.373Z,1011.01
2022-09-11T02:39:44.443Z,1010.98
2022-09-11T02:40:44.425Z,1010.98
2022-09-11T02:41:44.452Z,1010.97
2022-09-11T02:42:44.479Z,1010.99
2022-09-11T02:43:44.500Z,1010.98
2022-09-11T02:44:44.523Z,1010.96
2022-09-11T02:45:44.604Z,1011.00
2022-09-11T02:46:44.576Z,1010.96
2022-09-11T02:47:44.601Z,1010.98
2022-09-11T02:48:44.631Z,1010.98
2022-09-11T02:49:44.654Z,1010.99
2022-09-11T02:50:44.673Z,1010.97
2022-09-11T02:51:44.699Z,1010.98
2022-09-11T02:52:44.726Z,1011.01
2022-09-11T02:53:44.750Z,1011.03
2022-09-11T02:54:51.952Z,1011.01
2022-09-11T02:56:49.267Z,1010.98
2022-09-11T02:57:48.808Z,1010.99
2022-09-11T02:59:52.835Z,1010.99
2022-09-11T03:00:52.883Z,1010.98
2022-09-11T03:02:57.345Z,1010.97
2022-09-11T03:03:56.881Z,1010.98
2022-09-11T03:06:00.901Z,1011.03
2022-09-11T03:07:00.920Z,1011.04
2022-09-11T03:09:05.414Z,1011.04
2022-09-11T03:10:04.956Z,1011.04
2022-09-11T03:12:08.974Z,1011.05
2022-09-11T03:13:08.996Z,1011.09
2022-09-11T03:15:13.487Z,1011.06
2022-09-11T03:16:13.066Z,1011.07
2022-09-11T03:18:17.042Z,1011.12
2022-09-11T03:19:17.057Z,1011.12
2022-09-11T03:21:10.538Z,1011.13
2022-09-11T03:22:10.022Z,1011.15
2022-09-11T03:24:14.040Z,1011.16
2022-09-11T03:25:14.059Z,1011.18
2022-09-11T03:27:18.558Z,1011.21
2022-09-11T03:28:18.094Z,1011.18
2022-09-11T03:30:22.121Z,1011.20
2022-09-11T03:31:22.164Z,1011.24
2022-09-11T03:33:26.632Z,1011.22
2022-09-11T03:34:26.174Z,1011.22
2022-09-11T03:36:30.193Z,1011.22
2022-09-11T03:37:30.212Z,1011.24
2022-09-11T03:39:34.768Z,1011.24
2022-09-11T03:40:34.247Z,1011.28
2022-09-11T03:42:38.268Z,1011.31
2022-09-11T03:43:38.309Z,1011.35
2022-09-11T03:45:42.837Z,1011.35
2022-09-11T03:46:42.331Z,1011.38
2022-09-11T03:48:46.342Z,1011.40
2022-09-11T03:49:46.363Z,1011.38
2022-09-11T03:51:39.861Z,1011.40
2022-09-11T03:52:39.318Z,1011.40
2022-09-11T03:54:32.465Z,1011.42
2022-09-11T03:55:32.484Z,1011.41
2022-09-11T03:57:36.977Z,1011.41
2022-09-11T03:58:36.520Z,1011.38
2022-09-11T04:00:40.604Z,1011.38
2022-09-11T04:01:40.652Z,1011.39
2022-09-11T04:03:45.059Z,1011.39
2022-09-11T04:04:44.599Z,1011.37
2022-09-11T04:06:48.614Z,1011.38
2022-09-11T04:07:48.642Z,1011.33
2022-09-11T04:09:53.631Z,1011.38
2022-09-11T04:10:52.670Z,1011.39
2022-09-11T04:12:56.688Z,1011.35
2022-09-11T04:13:56.700Z,1011.34
2022-09-11T04:16:01.243Z,1011.33
2022-09-11T04:17:00.737Z,1011.33
2022-09-11T04:19:04.760Z,1011.33
2022-09-11T04:20:04.775Z,1011.39
2022-09-11T04:22:09.272Z,1011.43
2022-09-11T04:23:08.813Z,1011.45
2022-09-11T04:25:12.838Z,1011.49
2022-09-11T04:26:12.852Z,1011.52
2022-09-11T04:28:17.351Z,1011.54
2022-09-11T04:29:16.892Z,1011.55
2022-09-11T04:31:09.904Z,1011.56
2022-09-11T04:32:09.860Z,1011.56
2022-09-11T04:34:14.348Z,1011.57
2022-09-11T04:35:13.880Z,1011.53
2022-09-11T04:37:17.903Z,1011.57
2022-09-11T04:38:17.916Z,1011.59
2022-09-11T04:40:22.410Z,1011.60
2022-09-11T04:41:21.957Z,1011.58
2022-09-11T04:43:25.980Z,1011.59
2022-09-11T04:44:25.999Z,1011.63
2022-09-11T04:46:30.493Z,1011.67
2022-09-11T04:47:30.026Z,1011.68
2022-09-11T04:49:34.047Z,1011.68
2022-09-11T04:50:34.065Z,1011.73
2022-09-11T04:52:39.060Z,1011.71
2022-09-11T04:53:38.146Z,1011.75
2022-09-11T04:55:42.120Z,1011.78
2022-09-11T04:56:42.136Z,1011.76
2022-09-11T04:58:46.624Z,1011.76
2022-09-11T04:59:46.161Z,1011.77
2022-09-11T05:01:39.103Z,1011.75
2022-09-11T05:02:39.115Z,1011.79
2022-09-11T05:04:43.614Z,1011.74
2022-09-11T05:05:43.156Z,1011.76
2022-09-11T05:07:47.169Z,1011.81
2022-09-11T05:08:47.189Z,1011.83
2022-09-11T05:10:40.669Z,1011.89
2022-09-11T05:11:40.148Z,1011.89
2022-09-11T05:13:44.263Z,1011.97
2022-09-11T05:14:44.193Z,1011.98
2022-09-11T05:16:50.193Z,1011.97
2022-09-11T05:17:48.235Z,1012.01
2022-09-11T05:19:52.258Z,1012.02
2022-09-11T05:20:52.270Z,1012.05
2022-09-11T05:22:56.792Z,1012.04
2022-09-11T05:23:56.336Z,1012.08
2022-09-11T05:26:00.747Z,1012.11
2022-09-11T05:27:00.362Z,1012.08
2022-09-11T05:29:04.865Z,1012.14
2022-09-11T05:30:04.402Z,1012.14
2022-09-11T05:32:08.422Z,1012.18
2022-09-11T05:33:08.445Z,1012.18
2022-09-11T05:35:12.937Z,1012.21
2022-09-11T05:36:12.481Z,1012.23
2022-09-11T05:38:16.522Z,1012.24
2022-09-11T05:39:16.524Z,1012.23
2022-09-11T05:41:10.003Z,1012.25
2022-09-11T05:42:09.479Z,1012.29
2022-09-11T05:44:13.502Z,1012.28
2022-09-11T05:45:13.520Z,1012.31
2022-09-11T05:47:18.011Z,1012.35
2022-09-11T05:48:17.552Z,1012.35
2022-09-11T05:50:21.570Z,1012.40
2022-09-11T05:51:21.820Z,1012.38
2022-09-11T05:53:26.081Z,1012.42
2022-09-11T05:54:25.629Z,1012.41
2022-09-11T05:56:29.631Z,1012.40
2022-09-11T05:57:29.653Z,1012.42
2022-09-11T05:59:34.171Z,1012.45
2022-09-11T06:00:33.692Z,1012.47
2022-09-11T06:02:37.714Z,1012.46
2022-09-11T06:03:37.726Z,1012.49
2022-09-11T06:05:42.225Z,1012.50
2022-09-11T06:06:41.768Z,1012.54
2022-09-11T06:08:45.780Z,1012.58
2022-09-11T06:09:45.802Z,1012.62
2022-09-11T06:10:45.828Z,1012.59
2022-09-11T06:11:45.863Z,1012.58
2022-09-11T06:12:45.879Z,1012.60
2022-09-11T06:13:45.906Z,1012.65
2022-09-11T06:14:45.936Z,1012.66
2022-09-11T06:15:47.085Z,1012.68
2022-09-11T06:16:46.020Z,1012.66
2022-09-11T06:17:46.004Z,1012.73
2022-09-11T06:18:46.029Z,1012.68
2022-09-11T06:19:46.058Z,1012.70
2022-09-11T06:20:46.080Z,1012.68
2022-09-11T06:21:46.109Z,1012.67
2022-09-11T06:22:46.132Z,1012.68
2022-09-11T06:23:46.159Z,1012.73
2022-09-11T06:24:46.184Z,1012.72
2022-09-11T06:25:46.214Z,1012.73
2022-09-11T06:26:46.238Z,1012.77
2022-09-11T06:27:46.263Z,1012.77
2022-09-11T06:28:46.321Z,1012.80
2022-09-11T06:29:46.315Z,1012.81
2022-09-11T06:30:46.390Z,1012.78
2022-09-11T06:31:46.370Z,1012.83
2022-09-11T06:32:46.390Z,1012.80
2022-09-11T06:33:46.417Z,1012.85
2022-09-11T06:34:46.447Z,1012.84
2022-09-11T06:35:46.471Z,1012.82
2022-09-11T06:36:51.159Z,1012.83
2022-09-11T06:37:46.523Z,1012.81
2022-09-11T06:38:46.553Z,1012.84
2022-09-11T06:39:46.593Z,1012.83
2022-09-11T06:40:46.597Z,1012.83
2022-09-11T06:41:46.626Z,1012.89
2022-09-11T06:42:46.654Z,1012.90
2022-09-11T06:43:46.678Z,1012.90
2022-09-11T06:44:50.646Z,1012.91
2022-09-11T06:45:46.749Z,1012.92
2022-09-11T06:46:46.758Z,1012.91
2022-09-11T06:47:46.780Z,1012.93
2022-09-11T06:48:46.809Z,1012.91
2022-09-11T06:49:46.832Z,1012.93
2022-09-11T06:50:46.858Z,1012.87
2022-09-11T06:51:46.886Z,1012.86
2022-09-11T06:52:46.908Z,1012.91
2022-09-11T06:53:46.939Z,1012.87
2022-09-11T06:54:46.960Z,1012.91
2022-09-11T06:55:46.989Z,1012.89
2022-09-11T06:56:47.011Z,1012.86
2022-09-11T06:57:47.047Z,1012.92
2022-09-11T06:58:47.065Z,1012.90
2022-09-11T06:59:47.097Z,1012.94
2022-09-11T07:00:47.200Z,1012.92
2022-09-11T07:01:47.348Z,1012.96
2022-09-11T07:02:47.175Z,1012.94
2022-09-11T07:03:47.200Z,1012.97
2022-09-11T07:04:47.221Z,1012.94
2022-09-11T07:05:47.251Z,1012.91
2022-09-11T07:06:47.276Z,1012.92
2022-09-11T07:07:47.303Z,1012.89
2022-09-11T07:08:47.331Z,1012.92
2022-09-11T07:09:47.358Z,1012.94
2022-09-11T07:10:47.381Z,1012.93
2022-09-11T07:11:47.436Z,1012.94
2022-09-11T07:12:47.434Z,1012.94
2022-09-11T07:13:47.461Z,1012.95
2022-09-11T07:14:47.491Z,1012.96
2022-09-11T07:15:47.515Z,1012.97
2022-09-11T07:16:47.597Z,1012.97
2022-09-11T07:17:47.570Z,1012.96
2022-09-11T07:18:47.597Z,1012.96
2022-09-11T07:19:47.624Z,1012.94
2022-09-11T07:20:47.644Z,1012.93
2022-09-11T07:21:47.676Z,1012.97
2022-09-11T07:22:47.702Z,1012.97
2022-09-11T07:23:47.726Z,1012.96
2022-09-11T07:24:47.752Z,1012.98
2022-09-11T07:25:47.783Z,1012.98
2022-09-11T07:26:47.809Z,1012.98
2022-09-11T07:27:47.835Z,1013.01
2022-09-11T07:28:47.862Z,1012.96
2022-09-11T07:29:47.885Z,1013.00
2022-09-11T07:30:47.950Z,1012.99
2022-09-11T07:31:47.938Z,1012.99
2022-09-11T07:32:47.970Z,1012.98
2022-09-11T07:33:47.987Z,1013.03
2022-09-11T07:34:48.021Z,1013.05
2022-09-11T07:35:48.049Z,1013.03
2022-09-11T07:36:48.071Z,1013.03
2022-09-11T07:37:50.838Z,1013.07
2022-09-11T07:38:48.125Z,1013.04
2022-09-11T07:39:48.168Z,1013.08
2022-09-11T07:40:48.182Z,1013.05
2022-09-11T07:41:48.202Z,1013.08
2022-09-11T07:42:48.230Z,1013.09
2022-09-11T07:43:48.277Z,1013.06
2022-09-11T07:44:48.289Z,1013.09
2022-09-11T07:45:48.328Z,1013.10
2022-09-11T07:46:48.341Z,1013.08
2022-09-11T07:47:48.363Z,1013.14
2022-09-11T07:48:48.390Z,1013.15
2022-09-11T07:49:48.421Z,1013.16
2022-09-11T07:50:48.448Z,1013.17
2022-09-11T07:51:48.472Z,1013.17
2022-09-11T07:52:48.501Z,1013.17
2022-09-11T07:53:48.532Z,1013.16
2022-09-11T07:54:48.556Z,1013.21
2022-09-11T07:55:48.577Z,1013.21
2022-09-11T07:56:48.620Z,1013.17
2022-09-11T07:57:48.633Z,1013.18
2022-09-11T07:58:48.663Z,1013.16
2022-09-11T07:59:48.683Z,1013.19
2022-09-11T08:00:48.766Z,1013.21
2022-09-11T08:01:48.790Z,1013.17
2022-09-11T08:02:48.800Z,1013.17
2022-09-11T08:03:48.848Z,1013.18
2022-09-11T08:04:48.818Z,1013.21
2022-09-11T08:05:48.847Z,1013.19
2022-09-11T08:06:48.880Z,1013.22
2022-09-11T08:07:48.904Z,1013.21
2022-09-11T08:08:48.928Z,1013.21
2022-09-11T08:09:59.814Z,1013.21
2022-09-11T08:10:48.984Z,1013.24
2022-09-11T08:11:49.040Z,1013.27
2022-09-11T08:12:49.037Z,1013.28
2022-09-11T08:13:49.062Z,1013.29
2022-09-11T08:14:49.092Z,1013.28
2022-09-11T08:15:49.123Z,1013.26
2022-09-11T08:16:49.201Z,1013.26
2022-09-11T08:17:49.175Z,1013.28
2022-09-11T08:18:49.198Z,1013.33
2022-09-11T08:19:49.227Z,1013.30
2022-09-11T08:20:49.254Z,1013.30
2022-09-11T08:21:49.282Z,1013.32
2022-09-11T08:22:49.308Z,1013.32
2022-09-11T08:23:49.337Z,1013.36
2022-09-11T08:24:49.365Z,1013.36
2022-09-11T08:25:49.391Z,1013.41
2022-09-11T08:26:49.446Z,1013.38
2022-09-11T08:27:49.463Z,1013.39
2022-09-11T08:28:49.471Z,1013.41
2022-09-11T08:29:49.500Z,1013.44
2022-09-11T08:30:49.539Z,1013.45
2022-09-11T08:31:49.554Z,1013.47
2022-09-11T08:32:49.585Z,1013.45
2022-09-11T08:33:49.615Z,1013.46
2022-09-11T08:34:49.643Z,1013.49
2022-09-11T08:35:49.671Z,1013.51
2022-09-11T08:36:49.695Z,1013.51
2022-09-11T08:37:54.624Z,1013.54
2022-09-11T08:38:49.752Z,1013.50
2022-09-11T08:39:49.834Z,1013.58
2022-09-11T08:40:49.805Z,1013.57
2022-09-11T08:41:49.838Z,1013.57
2022-09-11T08:42:49.864Z,1013.60
2022-09-11T08:43:49.888Z,1013.60
2022-09-11T08:44:49.918Z,1013.60
2022-09-11T08:45:49.971Z,1013.63
2022-09-11T08:46:49.970Z,1013.63
2022-09-11T08:47:50.006Z,1013.63
2022-09-11T08:48:50.032Z,1013.62
2022-09-11T08:49:50.053Z,1013.61
2022-09-11T08:50:50.081Z,1013.64
2022-09-11T08:51:50.116Z,1013.66
2022-09-11T08:52:50.137Z,1013.67
2022-09-11T08:53:50.175Z,1013.72
2022-09-11T08:54:57.377Z,1013.69
2022-09-11T08:56:54.686Z,1013.69
2022-09-11T08:57:54.260Z,1013.71
2022-09-11T08:59:58.292Z,1013.74
2022-09-11T09:00:58.345Z,1013.72
2022-09-11T09:03:02.793Z,1013.72
2022-09-11T09:04:02.353Z,1013.73
2022-09-11T09:06:06.386Z,1013.74
2022-09-11T09:07:06.412Z,1013.75
2022-09-11T09:09:10.897Z,1013.78
2022-09-11T09:10:10.652Z,1013.79
2022-09-11T09:12:14.679Z,1013.82
2022-09-11T09:13:14.696Z,1013.84
2022-09-11T09:15:19.190Z,1013.84
2022-09-11T09:16:18.838Z,1013.87
2022-09-11T09:18:22.778Z,1013.89
2022-09-11T09:19:22.791Z,1013.88
2022-09-11T09:21:16.268Z,1013.94
2022-09-11T09:22:15.755Z,1013.96
2022-09-11T09:24:19.786Z,1013.95
2022-09-11T09:25:19.828Z,1013.95
2022-09-11T09:27:24.299Z,1013.93
2022-09-11T09:28:23.851Z,1013.96
2022-09-11T09:30:27.880Z,1013.95
2022-09-11T09:31:27.931Z,1014.00
2022-09-11T09:33:32.393Z,1013.99
2022-09-11T09:34:31.955Z,1013.99
2022-09-11T09:36:35.992Z,1014.03
2022-09-11T09:37:36.007Z,1014.03
2022-09-11T09:39:40.527Z,1014.06
2022-09-11T09:40:40.089Z,1014.07
2022-09-11T09:42:44.118Z,1014.07
2022-09-11T09:43:44.385Z,1014.10
2022-09-11T09:45:48.679Z,1014.08
2022-09-11T09:46:50.957Z,1014.11
2022-09-11T09:48:52.242Z,1014.11
2022-09-11T09:49:52.262Z,1014.11
2022-09-11T09:51:58.888Z,1014.12
2022-09-11T09:52:56.308Z,1014.13
2022-09-11T09:55:00.763Z,1014.12
2022-09-11T09:56:00.345Z,1014.12
2022-09-11T09:58:04.839Z,1014.14
2022-09-11T09:59:04.384Z,1014.12
2022-09-11T10:00:57.331Z,1014.12
2022-09-11T10:01:57.439Z,1014.16
2022-09-11T10:04:01.900Z,1014.15
2022-09-11T10:05:01.401Z,1014.16
2022-09-11T10:07:05.422Z,1014.18
2022-09-11T10:08:05.441Z,1014.18
2022-09-11T10:10:09.933Z,1014.17
2022-09-11T10:11:09.492Z,1014.21
2022-09-11T10:13:20.467Z,1014.18
2022-09-11T10:14:24.458Z,1014.25
2022-09-11T10:16:18.109Z,1014.22
2022-09-11T10:17:17.596Z,1014.20
2022-09-11T10:19:21.641Z,1014.22
2022-09-11T10:20:21.646Z,1014.22
2022-09-11T10:22:26.168Z,1014.22
2022-09-11T10:23:25.694Z,1014.20
2022-09-11T10:25:29.733Z,1014.19
2022-09-11T10:26:29.750Z,1014.23
2022-09-11T10:28:34.352Z,1014.22
2022-09-11T10:29:33.800Z,1014.21
2022-09-11T10:31:26.790Z,1014.16
2022-09-11T10:32:26.768Z,1014.17
2022-09-11T10:34:31.265Z,1014.17
2022-09-11T10:35:30.820Z,1014.20
2022-09-11T10:37:34.875Z,1014.19
2022-09-11T10:38:38.106Z,1014.21
2022-09-11T10:40:39.384Z,1014.20
2022-09-11T10:41:38.948Z,1014.21
2022-09-11T10:43:42.986Z,1014.19
2022-09-11T10:44:43.008Z,1014.16
2022-09-11T10:46:47.504Z,1014.16
2022-09-11T10:47:47.061Z,1014.15
2022-09-11T10:49:51.113Z,1014.15
2022-09-11T10:50:51.136Z,1014.10
2022-09-11T10:52:55.635Z,1014.11
2022-09-11T10:53:55.188Z,1014.13
2022-09-11T10:55:59.225Z,1014.11
2022-09-11T10:56:59.262Z,1014.15
2022-09-11T10:59:03.736Z,1014.10
2022-09-11T11:00:03.303Z,1014.12
2022-09-11T11:02:07.396Z,1014.14
2022-09-11T11:03:07.357Z,1014.14
2022-09-11T11:05:11.851Z,1014.12
2022-09-11T11:06:11.407Z,1014.12
2022-09-11T11:08:15.448Z,1014.11
2022-09-11T11:09:15.462Z,1014.08
2022-09-11T11:11:08.948Z,1014.07
2022-09-11T11:12:08.437Z,1014.08
2022-09-11T11:14:12.470Z,1014.09
2022-09-11T11:15:12.483Z,1014.11
2022-09-11T11:17:16.983Z,1014.10
2022-09-11T11:18:16.544Z,1014.15
2022-09-11T11:20:20.580Z,1014.13
2022-09-11T11:21:20.595Z,1014.16
2022-09-11T11:23:25.093Z,1014.17
2022-09-11T11:24:24.650Z,1014.18
2022-09-11T11:26:28.689Z,1014.15
2022-09-11T11:27:28.713Z,1014.17
2022-09-11T11:30:37.211Z,1014.22
2022-09-11T11:31:37.541Z,1014.16
2022-09-11T11:33:40.808Z,1014.19
2022-09-11T11:34:40.823Z,1014.13
2022-09-11T11:36:45.321Z,1014.17
2022-09-11T11:37:44.881Z,1014.19
2022-09-11T11:39:49.041Z,1014.19
2022-09-11T11:40:48.931Z,1014.18
2022-09-11T11:42:56.246Z,1014.16
2022-09-11T11:43:52.985Z,1014.18
2022-09-11T11:45:57.048Z,1014.13
2022-09-11T11:46:57.041Z,1014.15
2022-09-11T11:49:01.535Z,1014.13
2022-09-11T11:50:01.096Z,1014.16
2022-09-11T11:52:05.133Z,1014.19
2022-09-11T11:53:05.153Z,1014.17
2022-09-11T11:55:09.808Z,1014.15
2022-09-11T11:56:09.402Z,1014.17
2022-09-11T11:58:13.440Z,1014.18
2022-09-11T11:59:13.465Z,1014.17
2022-09-11T12:01:06.944Z,1014.13
2022-09-11T12:02:06.462Z,1014.06
2022-09-11T12:04:10.475Z,1014.04
2022-09-11T12:05:10.494Z,1014.01
2022-09-11T12:07:14.989Z,1014.03
2022-09-11T12:08:14.552Z,1014.07
2022-09-11T12:10:18.588Z,1014.07
2022-09-11T12:11:18.610Z,1014.04
2022-09-11T12:13:23.641Z,1014.07
2022-09-11T12:14:22.665Z,1014.05
2022-09-11T12:16:26.752Z,1014.07
2022-09-11T12:17:26.716Z,1014.05
2022-09-11T12:19:20.202Z,1014.02
2022-09-11T12:20:19.894Z,1013.99
2022-09-11T12:22:23.922Z,1013.97
2022-09-11T12:23:23.942Z,1013.96
2022-09-11T12:25:28.436Z,1013.93
2022-09-11T12:26:27.996Z,1013.96
2022-09-11T12:28:32.032Z,1013.92
2022-09-11T12:29:32.050Z,1013.89
2022-09-11T12:31:25.601Z,1013.92
2022-09-11T12:32:25.026Z,1013.98
2022-09-11T12:34:29.060Z,1013.97
2022-09-11T12:35:29.078Z,1013.94
2022-09-11T12:37:33.576Z,1013.96
2022-09-11T12:38:33.241Z,1013.98
2022-09-11T12:40:37.174Z,1014.01
2022-09-11T12:41:37.197Z,1014.02
2022-09-11T12:43:41.691Z,1014.01
2022-09-11T12:44:41.244Z,1014.01
2022-09-11T12:46:45.284Z,1013.97
2022-09-11T12:47:45.305Z,1013.94
2022-09-11T12:49:49.803Z,1013.93
2022-09-11T12:50:49.362Z,1013.96
2022-09-11T12:52:53.397Z,1013.92
2022-09-11T12:53:53.414Z,1013.89
2022-09-11T12:55:57.908Z,1013.91
2022-09-11T12:56:57.470Z,1013.92
2022-09-11T12:59:01.506Z,1013.93
2022-09-11T13:00:01.531Z,1013.93
2022-09-11T13:02:06.148Z,1013.95
2022-09-11T13:03:05.584Z,1013.91
2022-09-11T13:05:09.621Z,1013.93
2022-09-11T13:06:09.638Z,1013.90
2022-09-11T13:08:14.139Z,1013.86
2022-09-11T13:09:13.693Z,1013.89
2022-09-11T13:11:06.651Z,1013.85
2022-09-11T13:12:06.666Z,1013.83
2022-09-11T13:14:11.163Z,1013.76
2022-09-11T13:15:10.722Z,1013.77
2022-09-11T13:17:14.758Z,1013.77
2022-09-11T13:18:14.775Z,1013.74
2022-09-11T13:20:19.272Z,1013.75
2022-09-11T13:21:21.126Z,1013.73
2022-09-11T13:23:22.856Z,1013.71
2022-09-11T13:24:22.883Z,1013.70
2022-09-11T13:26:27.377Z,1013.71
2022-09-11T13:27:26.932Z,1013.71
2022-09-11T13:29:30.987Z,1013.72
2022-09-11T13:30:30.986Z,1013.70
2022-09-11T13:32:35.481Z,1013.71
2022-09-11T13:33:35.035Z,1013.72
2022-09-11T13:35:40.213Z,1013.70
2022-09-11T13:36:39.090Z,1013.68
2022-09-11T13:38:43.585Z,1013.67
2022-09-11T13:39:43.208Z,1013.65
2022-09-11T13:41:36.106Z,1013.63
2022-09-11T13:42:36.118Z,1013.65
2022-09-11T13:44:40.612Z,1013.61
2022-09-11T13:45:40.243Z,1013.60
2022-09-11T13:47:44.204Z,1013.61
2022-09-11T13:48:44.221Z,1013.60
2022-09-11T13:50:37.705Z,1013.59
2022-09-11T13:51:37.190Z,1013.57
2022-09-11T13:53:41.223Z,1013.55
2022-09-11T13:54:41.250Z,1013.53
2022-09-11T13:56:34.733Z,1013.51
2022-09-11T13:57:34.423Z,1013.50
2022-09-11T13:59:38.476Z,1013.42
2022-09-11T14:00:38.473Z,1013.42
2022-09-11T14:02:43.004Z,1013.40
2022-09-11T14:03:42.647Z,1013.38
2022-09-11T14:05:46.559Z,1013.40
2022-09-11T14:06:46.574Z,1013.37
2022-09-11T14:08:51.072Z,1013.38
2022-09-11T14:09:50.623Z,1013.34
2022-09-11T14:11:54.652Z,1013.29
2022-09-11T14:12:54.672Z,1013.30
2022-09-11T14:15:00.247Z,1013.26
2022-09-11T14:15:59.778Z,1013.27
2022-09-11T14:18:03.766Z,1013.29
2022-09-11T14:19:03.788Z,1013.25
2022-09-11T14:20:57.273Z,1013.26
2022-09-11T14:21:56.762Z,1013.26
2022-09-11T14:24:00.900Z,1013.21
2022-09-11T14:25:00.806Z,1013.20
2022-09-11T14:27:05.299Z,1013.19
2022-09-11T14:28:04.863Z,1013.18
2022-09-11T14:30:08.894Z,1013.17
2022-09-11T14:31:09.009Z,1013.15
2022-09-11T14:33:13.408Z,1013.18
2022-09-11T14:34:12.965Z,1013.18
2022-09-11T14:36:17.001Z,1013.14
2022-09-11T14:37:17.020Z,1013.07
2022-09-11T14:39:21.513Z,1013.05
2022-09-11T14:40:21.067Z,1013.03
2022-09-11T14:42:25.106Z,1012.99
2022-09-11T14:43:25.124Z,1012.99
2022-09-11T14:45:29.620Z,1012.98
2022-09-11T14:46:29.212Z,1012.98
2022-09-11T14:48:33.217Z,1012.98
2022-09-11T14:49:33.239Z,1012.97
2022-09-11T14:51:26.222Z,1012.97
2022-09-11T14:52:26.209Z,1012.97
2022-09-11T14:54:30.245Z,1012.96
2022-09-11T14:55:30.264Z,1012.95
2022-09-11T14:57:34.761Z,1012.97
2022-09-11T14:58:34.316Z,1012.98
2022-09-11T15:00:38.351Z,1012.91
2022-09-11T15:01:38.411Z,1012.90
2022-09-11T15:03:42.924Z,1012.93
2022-09-11T15:04:42.427Z,1012.86
2022-09-11T15:06:46.462Z,1012.88
2022-09-11T15:07:46.482Z,1012.92
2022-09-11T15:09:51.084Z,1012.94
2022-09-11T15:10:50.727Z,1012.94
2022-09-11T15:12:54.760Z,1012.87
2022-09-11T15:14:13.800Z,1012.87
2022-09-11T15:16:00.226Z,1012.89
2022-09-11T15:16:59.020Z,1012.88
2022-09-11T15:19:03.057Z,1012.89
2022-09-11T15:20:03.076Z,1012.89
2022-09-11T15:22:07.578Z,1012.89
2022-09-11T15:23:07.131Z,1012.89
2022-09-11T15:25:11.167Z,1012.85
2022-09-11T15:26:11.189Z,1012.86
2022-09-11T15:28:15.686Z,1012.84
2022-09-11T15:29:15.246Z,1012.84